• Join FlightAware (Why Join?)
  • Login
  • US Flag 
11:41AM EDT


 

Airport Tracker/Info


-or-


 

Live Flight TrackerFlight Track Log ✈ DAL6034 ✈ 25-Apr-2013 ✈ KLGA - KMHT

Flight Track Log - Related Links

Times and Time Zones

All times are in EDT time to prevent confusion due to time zone crossing. See the DAL6034 flight status page for this flight to view local times or setup timezone preferences in your user account.

Time Position Orientation Groundspeed Altitude Reporting Facility
EDT Latitude Longitude Course Direction KTS MPH feet Rate Location/Type
05:55PM 40.7667 -73.8500 90° East 159 183 800  Level New York TRACON
05:56PM 40.7667 -73.7833 90° East 208 239 2,700 2,100 Climbing New York TRACON
05:57PM 40.8553 -73.6997 36° Northeast 244 281 6,600 2,280 Climbing Boston Center
05:58PM 40.9036 -73.6647 29° Northeast 244 281 8,900 2,100 Climbing Boston Center
05:59PM 40.9814 -73.6169 25° Northeast 244 281 10,900 1,020 Climbing Boston Center
06:00PM 41.0653 -73.5661 25° Northeast 304 350 11,000 600 Climbing Boston Center
06:01PM 41.1636 -73.5072 24° Northeast 349 402 12,100 1,260 Climbing Boston Center
06:02PM 41.2494 -73.4561 24° Northeast 364 419 13,600 1,560 Climbing Boston Center
06:03PM 41.3461 -73.3747 32° Northeast 364 419 15,300 1,560 Climbing Boston Center
06:04PM 41.4364 -73.2956 33° Northeast 380 437 16,800 840 Climbing Boston Center
06:05PM 41.5286 -73.2081 35° Northeast 394 453 17,000 60 Climbing Boston Center
06:06PM 41.6294 -73.1150 35° Northeast 418 481 17,000  Level Boston Center
06:07PM 41.7361 -73.0383 28° Northeast 432 497 17,000  Level Boston Center
06:08PM 41.8322 -72.9694 28° Northeast 432 497 17,000  Level Boston Center
06:09PM 41.9389 -72.8978 27° Northeast 432 497 17,000  Level Boston Center
06:10PM 42.0414 -72.8258 28° Northeast 427 491 17,000  Level Boston Center
06:11PM 42.1458 -72.7508 28° Northeast 427 491 17,000  Level Boston Center
06:12PM 42.2500 -72.6786 27° Northeast 427 491 17,000  Level Boston Center
06:13PM 42.3503 -72.5917 33° Northeast 422 486 17,000 -360 Level Boston Center
06:14PM 42.4336 -72.4767 46° Northeast 422 486 16,300 -840 Descending Boston Center
06:15PM 42.5150 -72.3611 46° Northeast 417 480 15,400 -1,440 Descending Boston Center
06:16PM 42.5942 -72.2456 47° Northeast 393 452 13,500 -1,680 Descending Boston Center
06:17PM 42.6586 -72.1550 46° Northeast 367 422 12,100 -1,500 Descending Boston Center
06:18PM 42.7331 -72.0500 46° Northeast 362 417 10,500 -1,140 Descending Boston Center
06:19PM 42.7933 -71.9619 47° Northeast 343 395 9,900 -1,380 Descending Boston Center
06:20PM 42.7992 -71.8600 86° East 272 313 7,800 -1,440 Descending Boston Center
06:21PM 42.7944 -71.7694 94° East 267 307 7,100 -1,260 Descending Boston Center
06:22PM 42.7897 -71.6678 94° East 251 289 5,300 -1,560 Descending Boston Center
06:23PM 42.7847 -71.5828 95° East 251 289 4,000 -900 Descending Boston Center
06:24PM 42.7922 -71.4808 84° East 251 289 3,500 -540 Descending Boston Center